sensor_id;sensor_type;location;lat;lon;timestamp;P1;durP1;ratioP1;P2;durP2;ratioP2
76117;SDS011;64851;50.232;20.364;2023-02-28T00:01:40;8.60;;;4.60;;
76117;SDS011;64851;50.232;20.364;2023-02-28T00:04:14;12.50;;;5.10;;
76117;SDS011;64851;50.232;20.364;2023-02-28T00:07:03;8.60;;;4.40;;
76117;SDS011;64851;50.232;20.364;2023-02-28T00:09:37;8.00;;;3.60;;
76117;SDS011;64851;50.232;20.364;2023-02-28T00:12:26;9.30;;;3.70;;
76117;SDS011;64851;50.232;20.364;2023-02-28T00:15:02;8.60;;;4.00;;
76117;SDS011;64851;50.232;20.364;2023-02-28T00:18:00;10.70;;;4.30;;
76117;SDS011;64851;50.232;20.364;2023-02-28T00:20:34;12.40;;;4.90;;
76117;SDS011;64851;50.232;20.364;2023-02-28T00:23:30;9.90;;;4.10;;
76117;SDS011;64851;50.232;20.364;2023-02-28T00:26:04;8.70;;;4.10;;
76117;SDS011;64851;50.232;20.364;2023-02-28T00:28:53;10.80;;;4.10;;
76117;SDS011;64851;50.232;20.364;2023-02-28T00:31:27;11.90;;;5.70;;
76117;SDS011;64851;50.232;20.364;2023-02-28T00:34:23;10.30;;;4.40;;
76117;SDS011;64851;50.232;20.364;2023-02-28T00:36:57;15.70;;;6.30;;
76117;SDS011;64851;50.232;20.364;2023-02-28T00:39:52;10.10;;;4.60;;
76117;SDS011;64851;50.232;20.364;2023-02-28T00:42:47;8.90;;;5.10;;
76117;SDS011;64851;50.232;20.364;2023-02-28T00:45:21;14.70;;;6.10;;
76117;SDS011;64851;50.232;20.364;2023-02-28T00:48:17;12.30;;;5.50;;
76117;SDS011;64851;50.232;20.364;2023-02-28T00:50:52;25.90;;;10.40;;
76117;SDS011;64851;50.232;20.364;2023-02-28T00:53:40;19.00;;;9.20;;
76117;SDS011;64851;50.232;20.364;2023-02-28T00:56:14;12.80;;;5.80;;
76117;SDS011;64851;50.232;20.364;2023-02-28T00:59:10;9.00;;;4.60;;
76117;SDS011;64851;50.232;20.364;2023-02-28T01:01:46;13.00;;;5.90;;
76117;SDS011;64851;50.232;20.364;2023-02-28T01:04:41;11.80;;;5.80;;
76117;SDS011;64851;50.232;20.364;2023-02-28T01:07:15;13.30;;;5.10;;
76117;SDS011;64851;50.232;20.364;2023-02-28T01:10:11;12.60;;;4.80;;
76117;SDS011;64851;50.232;20.364;2023-02-28T01:12:46;9.50;;;4.00;;
76117;SDS011;64851;50.232;20.364;2023-02-28T01:15:41;10.30;;;4.00;;
76117;SDS011;64851;50.232;20.364;2023-02-28T01:18:39;10.70;;;4.60;;
76117;SDS011;64851;50.232;20.364;2023-02-28T01:21:15;8.80;;;4.40;;
76117;SDS011;64851;50.232;20.364;2023-02-28T01:24:04;14.10;;;5.40;;
76117;SDS011;64851;50.232;20.364;2023-02-28T01:26:39;31.10;;;10.40;;
76117;SDS011;64851;50.232;20.364;2023-02-28T01:29:35;47.50;;;13.50;;
76117;SDS011;64851;50.232;20.364;2023-02-28T01:32:10;45.90;;;12.90;;
76117;SDS011;64851;50.232;20.364;2023-02-28T01:34:59;41.40;;;13.10;;
76117;SDS011;64851;50.232;20.364;2023-02-28T01:37:34;43.00;;;11.60;;
76117;SDS011;64851;50.232;20.364;2023-02-28T01:40:22;38.80;;;11.80;;
76117;SDS011;64851;50.232;20.364;2023-02-28T01:42:56;29.60;;;9.90;;
76117;SDS011;64851;50.232;20.364;2023-02-28T01:45:52;29.70;;;8.50;;
76117;SDS011;64851;50.232;20.364;2023-02-28T01:48:29;32.40;;;10.40;;
76117;SDS011;64851;50.232;20.364;2023-02-28T01:51:22;32.00;;;13.30;;
76117;SDS011;64851;50.232;20.364;2023-02-28T01:54:08;25.40;;;11.10;;
76117;SDS011;64851;50.232;20.364;2023-02-28T02:00:03;18.10;;;6.60;;
76117;SDS011;64851;50.232;20.364;2023-02-28T02:02:49;16.50;;;6.30;;
76117;SDS011;64851;50.232;20.364;2023-02-28T02:05:39;14.40;;;5.50;;
76117;SDS011;64851;50.232;20.364;2023-02-28T02:08:19;16.90;;;5.60;;
76117;SDS011;64851;50.232;20.364;2023-02-28T02:11:10;14.40;;;5.70;;
76117;SDS011;64851;50.232;20.364;2023-02-28T02:25:54;12.90;;;6.70;;
76117;SDS011;64851;50.232;20.364;2023-02-28T02:34:52;14.40;;;6.60;;
76117;SDS011;64851;50.232;20.364;2023-02-28T02:37:48;17.90;;;6.40;;
76117;SDS011;64851;50.232;20.364;2023-02-28T02:40:44;9.20;;;4.00;;
76117;SDS011;64851;50.232;20.364;2023-02-28T02:43:33;16.90;;;6.70;;
76117;SDS011;64851;50.232;20.364;2023-02-28T02:46:27;21.60;;;7.90;;
76117;SDS011;64851;50.232;20.364;2023-02-28T02:49:06;19.20;;;7.20;;
76117;SDS011;64851;50.232;20.364;2023-02-28T02:51:57;28.70;;;9.80;;
76117;SDS011;64851;50.232;20.364;2023-02-28T02:54:36;25.60;;;10.70;;
76117;SDS011;64851;50.232;20.364;2023-02-28T02:57:47;32.10;;;12.30;;
76117;SDS011;64851;50.232;20.364;2023-02-28T03:00:23;25.60;;;9.70;;
76117;SDS011;64851;50.232;20.364;2023-02-28T03:03:20;16.80;;;7.40;;
76117;SDS011;64851;50.232;20.364;2023-02-28T03:06:03;17.80;;;7.90;;
76117;SDS011;64851;50.232;20.364;2023-02-28T03:08:58;17.80;;;7.50;;
76117;SDS011;64851;50.232;20.364;2023-02-28T03:11:54;16.20;;;6.60;;
76117;SDS011;64851;50.232;20.364;2023-02-28T03:14:43;11.40;;;5.10;;
76117;SDS011;64851;50.232;20.364;2023-02-28T03:17:47;12.70;;;6.30;;
76117;SDS011;64851;50.232;20.364;2023-02-28T03:24:40;15.30;;;6.50;;
76117;SDS011;64851;50.232;20.364;2023-02-28T03:26:49;14.50;;;6.30;;
76117;SDS011;64851;50.232;20.364;2023-02-28T03:29:52;13.00;;;5.90;;
76117;SDS011;64851;50.232;20.364;2023-02-28T03:35:55;11.20;;;4.50;;
76117;SDS011;64851;50.232;20.364;2023-02-28T03:41:36;12.60;;;5.90;;
76117;SDS011;64851;50.232;20.364;2023-02-28T03:47:45;9.00;;;4.80;;
76117;SDS011;64851;50.232;20.364;2023-02-28T03:50:34;15.50;;;6.00;;
76117;SDS011;64851;50.232;20.364;2023-02-28T03:53:26;11.20;;;5.20;;
76117;SDS011;64851;50.232;20.364;2023-02-28T03:58:55;13.00;;;6.10;;
76117;SDS011;64851;50.232;20.364;2023-02-28T04:01:37;11.00;;;5.50;;
76117;SDS011;64851;50.232;20.364;2023-02-28T04:04:34;12.50;;;5.70;;
76117;SDS011;64851;50.232;20.364;2023-02-28T04:07:36;12.20;;;4.80;;
76117;SDS011;64851;50.232;20.364;2023-02-28T04:10:31;12.30;;;4.90;;
76117;SDS011;64851;50.232;20.364;2023-02-28T04:13:06;8.80;;;3.10;;
76117;SDS011;64851;50.232;20.364;2023-02-28T04:16:01;13.80;;;5.60;;
76117;SDS011;64851;50.232;20.364;2023-02-28T04:19:15;10.20;;;4.40;;
76117;SDS011;64851;50.232;20.364;2023-02-28T04:21:56;6.90;;;3.00;;
76117;SDS011;64851;50.232;20.364;2023-02-28T04:24:45;10.20;;;4.30;;
76117;SDS011;64851;50.232;20.364;2023-02-28T04:27:26;11.10;;;4.40;;
76117;SDS011;64851;50.232;20.364;2023-02-28T04:30:14;13.40;;;6.00;;
76117;SDS011;64851;50.232;20.364;2023-02-28T04:35:36;16.70;;;5.90;;
76117;SDS011;64851;50.232;20.364;2023-02-28T04:38:10;11.50;;;5.80;;
76117;SDS011;64851;50.232;20.364;2023-02-28T04:41:05;10.70;;;5.10;;
76117;SDS011;64851;50.232;20.364;2023-02-28T04:44:00;11.10;;;5.50;;
76117;SDS011;64851;50.232;20.364;2023-02-28T04:46:34;13.50;;;5.90;;
76117;SDS011;64851;50.232;20.364;2023-02-28T04:49:30;33.80;;;12.20;;
76117;SDS011;64851;50.232;20.364;2023-02-28T04:52:25;32.40;;;12.10;;
76117;SDS011;64851;50.232;20.364;2023-02-28T04:55:01;22.60;;;8.60;;
76117;SDS011;64851;50.232;20.364;2023-02-28T04:57:57;35.90;;;13.10;;
76117;SDS011;64851;50.232;20.364;2023-02-28T05:00:52;47.30;;;16.80;;
76117;SDS011;64851;50.232;20.364;2023-02-28T05:03:34;18.00;;;7.10;;
76117;SDS011;64851;50.232;20.364;2023-02-28T05:06:16;138.50;;;41.60;;
76117;SDS011;64851;50.232;20.364;2023-02-28T05:08:58;217.50;;;70.80;;
76117;SDS011;64851;50.232;20.364;2023-02-28T05:11:41;57.60;;;22.50;;
76117;SDS011;64851;50.232;20.364;2023-02-28T05:14:22;20.40;;;8.80;;
76117;SDS011;64851;50.232;20.364;2023-02-28T05:17:05;18.70;;;7.80;;
76117;SDS011;64851;50.232;20.364;2023-02-28T05:19:46;21.80;;;7.70;;
76117;SDS011;64851;50.232;20.364;2023-02-28T05:22:49;26.60;;;10.10;;
76117;SDS011;64851;50.232;20.364;2023-02-28T05:25:24;15.70;;;6.90;;
76117;SDS011;64851;50.232;20.364;2023-02-28T05:28:13;15.90;;;6.10;;
76117;SDS011;64851;50.232;20.364;2023-02-28T05:30:55;18.20;;;8.60;;
76117;SDS011;64851;50.232;20.364;2023-02-28T05:33:37;15.10;;;7.40;;
76117;SDS011;64851;50.232;20.364;2023-02-28T05:36:19;16.90;;;7.20;;
76117;SDS011;64851;50.232;20.364;2023-02-28T05:39:02;17.50;;;8.60;;
76117;SDS011;64851;50.232;20.364;2023-02-28T05:41:44;17.30;;;6.90;;
76117;SDS011;64851;50.232;20.364;2023-02-28T05:44:25;17.00;;;6.80;;
76117;SDS011;64851;50.232;20.364;2023-02-28T05:47:07;21.60;;;8.20;;
76117;SDS011;64851;50.232;20.364;2023-02-28T05:49:49;21.20;;;9.70;;
76117;SDS011;64851;50.232;20.364;2023-02-28T05:52:31;13.50;;;6.00;;
76117;SDS011;64851;50.232;20.364;2023-02-28T05:55:20;20.00;;;8.50;;
76117;SDS011;64851;50.232;20.364;2023-02-28T05:57:56;15.90;;;7.30;;
76117;SDS011;64851;50.232;20.364;2023-02-28T06:00:44;17.60;;;8.00;;
76117;SDS011;64851;50.232;20.364;2023-02-28T06:06:12;15.70;;;6.20;;
76117;SDS011;64851;50.232;20.364;2023-02-28T06:09:08;18.20;;;6.50;;
76117;SDS011;64851;50.232;20.364;2023-02-28T06:11:43;18.30;;;6.70;;
76117;SDS011;64851;50.232;20.364;2023-02-28T06:14:31;14.10;;;5.60;;
76117;SDS011;64851;50.232;20.364;2023-02-28T06:17:06;14.40;;;8.50;;
76117;SDS011;64851;50.232;20.364;2023-02-28T06:20:00;20.00;;;8.80;;
76117;SDS011;64851;50.232;20.364;2023-02-28T06:22:56;20.40;;;10.50;;
76117;SDS011;64851;50.232;20.364;2023-02-28T06:25:39;17.50;;;9.60;;
76117;SDS011;64851;50.232;20.364;2023-02-28T06:28:26;17.10;;;7.40;;
76117;SDS011;64851;50.232;20.364;2023-02-28T06:31:11;35.70;;;14.10;;
76117;SDS011;64851;50.232;20.364;2023-02-28T06:33:59;54.70;;;21.80;;
76117;SDS011;64851;50.232;20.364;2023-02-28T06:36:35;42.10;;;15.80;;
76117;SDS011;64851;50.232;20.364;2023-02-28T06:39:23;14.80;;;7.10;;
76117;SDS011;64851;50.232;20.364;2023-02-28T06:41:59;15.80;;;5.80;;
76117;SDS011;64851;50.232;20.364;2023-02-28T06:44:48;36.00;;;13.30;;
76117;SDS011;64851;50.232;20.364;2023-02-28T06:47:24;14.90;;;6.10;;
76117;SDS011;64851;50.232;20.364;2023-02-28T06:50:13;12.50;;;5.30;;
76117;SDS011;64851;50.232;20.364;2023-02-28T06:52:55;12.10;;;4.30;;
76117;SDS011;64851;50.232;20.364;2023-02-28T06:55:37;12.90;;;4.60;;
76117;SDS011;64851;50.232;20.364;2023-02-28T06:58:19;12.90;;;4.90;;
76117;SDS011;64851;50.232;20.364;2023-02-28T07:03:41;14.40;;;4.90;;
76117;SDS011;64851;50.232;20.364;2023-02-28T07:06:26;9.40;;;3.30;;
76117;SDS011;64851;50.232;20.364;2023-02-28T07:09:07;9.40;;;4.30;;
76117;SDS011;64851;50.232;20.364;2023-02-28T07:11:47;12.20;;;5.60;;
76117;SDS011;64851;50.232;20.364;2023-02-28T07:14:29;12.20;;;5.00;;
76117;SDS011;64851;50.232;20.364;2023-02-28T07:17:11;30.70;;;13.50;;
76117;SDS011;64851;50.232;20.364;2023-02-28T07:19:53;12.20;;;5.50;;
76117;SDS011;64851;50.232;20.364;2023-02-28T07:22:42;12.20;;;5.50;;
76117;SDS011;64851;50.232;20.364;2023-02-28T07:25:17;9.60;;;3.20;;
76117;SDS011;64851;50.232;20.364;2023-02-28T07:28:07;9.60;;;5.00;;
76117;SDS011;64851;50.232;20.364;2023-02-28T07:30:41;5.50;;;2.50;;
76117;SDS011;64851;50.232;20.364;2023-02-28T07:33:30;22.80;;;10.60;;
76117;SDS011;64851;50.232;20.364;2023-02-28T07:36:13;12.80;;;6.50;;
76117;SDS011;64851;50.232;20.364;2023-02-28T07:39:04;11.00;;;5.80;;
76117;SDS011;64851;50.232;20.364;2023-02-28T07:41:40;10.20;;;5.80;;
76117;SDS011;64851;50.232;20.364;2023-02-28T07:44:28;15.10;;;6.30;;
76117;SDS011;64851;50.232;20.364;2023-02-28T07:47:04;8.20;;;4.90;;
76117;SDS011;64851;50.232;20.364;2023-02-28T07:49:52;8.40;;;3.60;;
76117;SDS011;64851;50.232;20.364;2023-02-28T07:52:35;8.00;;;4.00;;
76117;SDS011;64851;50.232;20.364;2023-02-28T07:55:16;13.80;;;9.70;;
76117;SDS011;64851;50.232;20.364;2023-02-28T07:57:59;10.00;;;6.60;;
76117;SDS011;64851;50.232;20.364;2023-02-28T08:00:39;12.30;;;7.30;;
76117;SDS011;64851;50.232;20.364;2023-02-28T08:03:22;10.20;;;5.50;;
76117;SDS011;64851;50.232;20.364;2023-02-28T08:06:04;8.50;;;4.40;;
76117;SDS011;64851;50.232;20.364;2023-02-28T08:08:47;33.70;;;10.90;;
76117;SDS011;64851;50.232;20.364;2023-02-28T08:11:37;18.30;;;8.00;;
76117;SDS011;64851;50.232;20.364;2023-02-28T08:14:12;14.60;;;5.60;;
76117;SDS011;64851;50.232;20.364;2023-02-28T08:17:02;9.90;;;5.00;;
76117;SDS011;64851;50.232;20.364;2023-02-28T08:19:37;15.70;;;7.80;;
76117;SDS011;64851;50.232;20.364;2023-02-28T08:22:31;10.70;;;5.40;;
76117;SDS011;64851;50.232;20.364;2023-02-28T08:25:26;16.50;;;7.10;;
76117;SDS011;64851;50.232;20.364;2023-02-28T08:28:01;8.00;;;3.40;;
76117;SDS011;64851;50.232;20.364;2023-02-28T08:30:56;16.20;;;8.90;;
76117;SDS011;64851;50.232;20.364;2023-02-28T08:33:51;8.70;;;4.10;;
76117;SDS011;64851;50.232;20.364;2023-02-28T08:36:27;12.70;;;6.50;;
76117;SDS011;64851;50.232;20.364;2023-02-28T08:39:16;7.60;;;3.50;;
76117;SDS011;64851;50.232;20.364;2023-02-28T08:41:50;6.80;;;3.20;;
76117;SDS011;64851;50.232;20.364;2023-02-28T08:44:46;6.20;;;2.50;;
76117;SDS011;64851;50.232;20.364;2023-02-28T08:47:21;3.80;;;1.90;;
76117;SDS011;64851;50.232;20.364;2023-02-28T08:50:16;13.00;;;5.10;;
76117;SDS011;64851;50.232;20.364;2023-02-28T08:53:11;13.00;;;6.10;;
76117;SDS011;64851;50.232;20.364;2023-02-28T08:55:46;5.50;;;2.40;;
76117;SDS011;64851;50.232;20.364;2023-02-28T08:58:35;6.40;;;2.50;;
76117;SDS011;64851;50.232;20.364;2023-02-28T09:01:10;9.50;;;2.90;;
76117;SDS011;64851;50.232;20.364;2023-02-28T09:04:07;7.70;;;3.30;;
76117;SDS011;64851;50.232;20.364;2023-02-28T09:07:04;13.10;;;5.50;;
76117;SDS011;64851;50.232;20.364;2023-02-28T09:09:39;7.90;;;3.30;;
76117;SDS011;64851;50.232;20.364;2023-02-28T09:12:38;6.20;;;3.50;;
76117;SDS011;64851;50.232;20.364;2023-02-28T09:15:13;8.20;;;3.70;;
76117;SDS011;64851;50.232;20.364;2023-02-28T09:18:08;9.00;;;4.00;;
76117;SDS011;64851;50.232;20.364;2023-02-28T09:20:43;7.80;;;4.70;;
76117;SDS011;64851;50.232;20.364;2023-02-28T09:23:30;5.80;;;2.80;;
76117;SDS011;64851;50.232;20.364;2023-02-28T09:26:05;9.30;;;3.00;;
76117;SDS011;64851;50.232;20.364;2023-02-28T09:28:54;7.00;;;3.60;;
76117;SDS011;64851;50.232;20.364;2023-02-28T09:31:29;5.50;;;2.80;;
76117;SDS011;64851;50.232;20.364;2023-02-28T09:34:17;8.70;;;4.00;;
76117;SDS011;64851;50.232;20.364;2023-02-28T09:36:59;6.10;;;3.50;;
76117;SDS011;64851;50.232;20.364;2023-02-28T09:39:40;4.00;;;2.10;;
76117;SDS011;64851;50.232;20.364;2023-02-28T09:42:25;7.30;;;3.10;;
76117;SDS011;64851;50.232;20.364;2023-02-28T09:45:16;3.60;;;1.80;;
76117;SDS011;64851;50.232;20.364;2023-02-28T09:48:00;9.60;;;3.70;;
76117;SDS011;64851;50.232;20.364;2023-02-28T09:50:52;21.20;;;14.30;;
76117;SDS011;64851;50.232;20.364;2023-02-28T09:53:50;6.80;;;4.20;;
76117;SDS011;64851;50.232;20.364;2023-02-28T09:56:39;7.10;;;3.80;;
76117;SDS011;64851;50.232;20.364;2023-02-28T10:03:25;6.20;;;3.00;;
76117;SDS011;64851;50.232;20.364;2023-02-28T10:09:01;8.00;;;4.40;;
76117;SDS011;64851;50.232;20.364;2023-02-28T10:11:36;2.10;;;1.20;;
76117;SDS011;64851;50.232;20.364;2023-02-28T10:14:26;6.10;;;3.00;;
76117;SDS011;64851;50.232;20.364;2023-02-28T10:17:14;6.20;;;2.90;;
76117;SDS011;64851;50.232;20.364;2023-02-28T10:20:15;8.70;;;3.60;;
76117;SDS011;64851;50.232;20.364;2023-02-28T10:23:20;8.20;;;3.40;;
76117;SDS011;64851;50.232;20.364;2023-02-28T10:25:58;3.60;;;1.80;;
76117;SDS011;64851;50.232;20.364;2023-02-28T10:28:54;6.00;;;2.90;;
76117;SDS011;64851;50.232;20.364;2023-02-28T10:31:49;6.30;;;3.50;;
76117;SDS011;64851;50.232;20.364;2023-02-28T10:34:24;4.30;;;2.40;;
76117;SDS011;64851;50.232;20.364;2023-02-28T10:37:13;4.80;;;2.80;;
76117;SDS011;64851;50.232;20.364;2023-02-28T10:40:00;6.80;;;3.00;;
76117;SDS011;64851;50.232;20.364;2023-02-28T10:46:30;5.60;;;3.00;;
76117;SDS011;64851;50.232;20.364;2023-02-28T10:49:23;9.20;;;5.40;;
76117;SDS011;64851;50.232;20.364;2023-02-28T10:52:36;8.10;;;4.30;;
76117;SDS011;64851;50.232;20.364;2023-02-28T10:55:24;8.10;;;4.10;;
76117;SDS011;64851;50.232;20.364;2023-02-28T10:58:53;5.10;;;2.50;;
76117;SDS011;64851;50.232;20.364;2023-02-28T11:01:52;5.90;;;3.00;;
76117;SDS011;64851;50.232;20.364;2023-02-28T11:07:29;8.30;;;3.20;;
76117;SDS011;64851;50.232;20.364;2023-02-28T11:10:33;6.80;;;3.10;;
76117;SDS011;64851;50.232;20.364;2023-02-28T11:13:13;6.50;;;3.70;;
76117;SDS011;64851;50.232;20.364;2023-02-28T11:16:05;5.90;;;2.60;;
76117;SDS011;64851;50.232;20.364;2023-02-28T11:18:54;4.90;;;2.90;;
76117;SDS011;64851;50.232;20.364;2023-02-28T11:21:45;3.50;;;2.20;;
76117;SDS011;64851;50.232;20.364;2023-02-28T11:24:31;7.40;;;3.50;;
76117;SDS011;64851;50.232;20.364;2023-02-28T11:30:05;5.00;;;2.60;;
76117;SDS011;64851;50.232;20.364;2023-02-28T11:36:03;6.50;;;3.10;;
76117;SDS011;64851;50.232;20.364;2023-02-28T11:38:59;5.80;;;2.80;;
76117;SDS011;64851;50.232;20.364;2023-02-28T11:56:57;5.80;;;2.60;;
76117;SDS011;64851;50.232;20.364;2023-02-28T11:59:56;7.90;;;2.40;;
76117;SDS011;64851;50.232;20.364;2023-02-28T12:06:08;7.20;;;3.10;;
76117;SDS011;64851;50.232;20.364;2023-02-28T12:11:44;6.00;;;2.70;;
76117;SDS011;64851;50.232;20.364;2023-02-28T12:27:13;8.50;;;3.90;;
76117;SDS011;64851;50.232;20.364;2023-02-28T12:29:58;7.50;;;3.80;;
76117;SDS011;64851;50.232;20.364;2023-02-28T12:32:46;8.00;;;3.40;;
76117;SDS011;64851;50.232;20.364;2023-02-28T12:39:04;7.60;;;4.60;;
76117;SDS011;64851;50.232;20.364;2023-02-28T12:45:23;6.20;;;3.00;;
76117;SDS011;64851;50.232;20.364;2023-02-28T12:48:03;9.60;;;4.30;;
76117;SDS011;64851;50.232;20.364;2023-02-28T12:50:53;33.80;;;14.20;;
76117;SDS011;64851;50.232;20.364;2023-02-28T12:56:48;7.00;;;2.70;;
76117;SDS011;64851;50.232;20.364;2023-02-28T12:59:49;9.40;;;4.40;;
76117;SDS011;64851;50.232;20.364;2023-02-28T13:06:01;6.50;;;3.50;;
76117;SDS011;64851;50.232;20.364;2023-02-28T13:09:02;7.70;;;3.00;;
76117;SDS011;64851;50.232;20.364;2023-02-28T13:11:48;4.90;;;2.80;;
76117;SDS011;64851;50.232;20.364;2023-02-28T13:14:39;9.10;;;4.50;;
76117;SDS011;64851;50.232;20.364;2023-02-28T13:17:21;4.50;;;2.10;;
76117;SDS011;64851;50.232;20.364;2023-02-28T13:20:26;8.40;;;4.70;;
76117;SDS011;64851;50.232;20.364;2023-02-28T13:23:03;8.00;;;3.70;;
76117;SDS011;64851;50.232;20.364;2023-02-28T13:25:57;5.90;;;3.30;;
76117;SDS011;64851;50.232;20.364;2023-02-28T13:34:47;8.20;;;5.00;;
76117;SDS011;64851;50.232;20.364;2023-02-28T13:38:08;9.80;;;5.60;;
76117;SDS011;64851;50.232;20.364;2023-02-28T13:44:23;7.40;;;5.30;;
76117;SDS011;64851;50.232;20.364;2023-02-28T13:47:21;14.10;;;12.70;;
76117;SDS011;64851;50.232;20.364;2023-02-28T13:55:50;8.90;;;5.60;;
76117;SDS011;64851;50.232;20.364;2023-02-28T14:02:10;7.60;;;6.10;;
76117;SDS011;64851;50.232;20.364;2023-02-28T14:05:00;7.70;;;5.40;;
76117;SDS011;64851;50.232;20.364;2023-02-28T14:07:57;8.90;;;6.50;;
76117;SDS011;64851;50.232;20.364;2023-02-28T14:11:05;10.00;;;7.30;;
76117;SDS011;64851;50.232;20.364;2023-02-28T14:13:45;7.70;;;6.20;;
76117;SDS011;64851;50.232;20.364;2023-02-28T14:19:29;9.30;;;6.60;;
76117;SDS011;64851;50.232;20.364;2023-02-28T14:28:44;13.80;;;8.40;;
76117;SDS011;64851;50.232;20.364;2023-02-28T14:31:33;13.00;;;11.10;;
76117;SDS011;64851;50.232;20.364;2023-02-28T14:34:34;12.90;;;10.10;;
76117;SDS011;64851;50.232;20.364;2023-02-28T14:37:15;8.00;;;6.20;;
76117;SDS011;64851;50.232;20.364;2023-02-28T14:40:11;7.70;;;6.00;;
76117;SDS011;64851;50.232;20.364;2023-02-28T14:42:59;7.60;;;5.90;;
76117;SDS011;64851;50.232;20.364;2023-02-28T14:45:52;31.10;;;22.60;;
76117;SDS011;64851;50.232;20.364;2023-02-28T14:48:37;11.50;;;6.40;;
76117;SDS011;64851;50.232;20.364;2023-02-28T14:51:24;9.60;;;6.50;;
76117;SDS011;64851;50.232;20.364;2023-02-28T14:54:06;7.40;;;4.20;;
76117;SDS011;64851;50.232;20.364;2023-02-28T14:56:48;9.20;;;5.40;;
76117;SDS011;64851;50.232;20.364;2023-02-28T14:59:34;8.10;;;5.20;;
76117;SDS011;64851;50.232;20.364;2023-02-28T15:02:23;12.10;;;6.40;;
76117;SDS011;64851;50.232;20.364;2023-02-28T15:08:06;8.50;;;5.70;;
76117;SDS011;64851;50.232;20.364;2023-02-28T15:11:00;7.40;;;4.80;;
76117;SDS011;64851;50.232;20.364;2023-02-28T15:13:50;8.40;;;4.50;;
76117;SDS011;64851;50.232;20.364;2023-02-28T15:16:37;5.10;;;2.80;;
76117;SDS011;64851;50.232;20.364;2023-02-28T15:19:32;8.80;;;4.80;;
76117;SDS011;64851;50.232;20.364;2023-02-28T15:22:14;10.30;;;5.30;;
76117;SDS011;64851;50.232;20.364;2023-02-28T15:25:04;9.50;;;4.00;;
76117;SDS011;64851;50.232;20.364;2023-02-28T15:27:50;7.00;;;3.50;;
76117;SDS011;64851;50.232;20.364;2023-02-28T15:30:49;7.60;;;3.80;;
76117;SDS011;64851;50.232;20.364;2023-02-28T15:33:28;8.70;;;3.90;;
76117;SDS011;64851;50.232;20.364;2023-02-28T15:36:18;10.70;;;5.30;;
76117;SDS011;64851;50.232;20.364;2023-02-28T15:38:55;12.20;;;6.00;;
76117;SDS011;64851;50.232;20.364;2023-02-28T15:44:52;11.00;;;5.20;;
76117;SDS011;64851;50.232;20.364;2023-02-28T15:47:47;10.10;;;5.20;;
76117;SDS011;64851;50.232;20.364;2023-02-28T15:50:27;9.20;;;4.60;;
76117;SDS011;64851;50.232;20.364;2023-02-28T15:53:19;8.30;;;4.20;;
76117;SDS011;64851;50.232;20.364;2023-02-28T15:56:03;9.30;;;5.30;;
76117;SDS011;64851;50.232;20.364;2023-02-28T15:59:00;9.00;;;4.80;;
76117;SDS011;64851;50.232;20.364;2023-02-28T16:01:37;7.70;;;4.10;;
76117;SDS011;64851;50.232;20.364;2023-02-28T16:04:32;17.20;;;7.70;;
76117;SDS011;64851;50.232;20.364;2023-02-28T16:07:28;10.80;;;4.70;;
76117;SDS011;64851;50.232;20.364;2023-02-28T16:10:03;9.60;;;4.90;;
76117;SDS011;64851;50.232;20.364;2023-02-28T16:12:58;16.00;;;6.10;;
76117;SDS011;64851;50.232;20.364;2023-02-28T16:15:35;10.30;;;5.70;;
76117;SDS011;64851;50.232;20.364;2023-02-28T16:18:32;11.40;;;5.40;;
76117;SDS011;64851;50.232;20.364;2023-02-28T16:21:08;11.00;;;5.40;;
76117;SDS011;64851;50.232;20.364;2023-02-28T16:23:55;12.00;;;5.10;;
76117;SDS011;64851;50.232;20.364;2023-02-28T16:26:32;12.80;;;5.10;;
76117;SDS011;64851;50.232;20.364;2023-02-28T16:29:24;10.20;;;5.50;;
76117;SDS011;64851;50.232;20.364;2023-02-28T16:32:07;20.70;;;9.60;;
76117;SDS011;64851;50.232;20.364;2023-02-28T16:34:55;31.40;;;12.30;;
76117;SDS011;64851;50.232;20.364;2023-02-28T16:37:37;23.50;;;9.60;;
76117;SDS011;64851;50.232;20.364;2023-02-28T16:40:19;23.30;;;10.90;;
76117;SDS011;64851;50.232;20.364;2023-02-28T16:43:24;21.70;;;10.50;;
76117;SDS011;64851;50.232;20.364;2023-02-28T16:46:19;20.60;;;10.30;;
76117;SDS011;64851;50.232;20.364;2023-02-28T16:49:14;21.60;;;10.10;;
76117;SDS011;64851;50.232;20.364;2023-02-28T16:52:10;21.60;;;8.50;;
76117;SDS011;64851;50.232;20.364;2023-02-28T16:54:45;21.50;;;9.40;;
76117;SDS011;64851;50.232;20.364;2023-02-28T16:57:41;16.30;;;7.20;;
76117;SDS011;64851;50.232;20.364;2023-02-28T17:00:37;16.90;;;8.00;;
76117;SDS011;64851;50.232;20.364;2023-02-28T17:03:20;16.80;;;7.30;;
76117;SDS011;64851;50.232;20.364;2023-02-28T17:06:17;13.90;;;6.30;;
76117;SDS011;64851;50.232;20.364;2023-02-28T17:08:56;17.10;;;6.80;;
76117;SDS011;64851;50.232;20.364;2023-02-28T17:11:44;17.90;;;7.40;;
76117;SDS011;64851;50.232;20.364;2023-02-28T17:14:22;15.50;;;6.20;;
76117;SDS011;64851;50.232;20.364;2023-02-28T17:17:13;21.30;;;8.10;;
76117;SDS011;64851;50.232;20.364;2023-02-28T17:19:52;19.40;;;8.20;;
76117;SDS011;64851;50.232;20.364;2023-02-28T17:22:48;19.90;;;7.80;;
76117;SDS011;64851;50.232;20.364;2023-02-28T17:25:23;21.70;;;8.60;;
76117;SDS011;64851;50.232;20.364;2023-02-28T17:28:20;22.00;;;9.00;;
76117;SDS011;64851;50.232;20.364;2023-02-28T17:31:15;23.10;;;8.30;;
76117;SDS011;64851;50.232;20.364;2023-02-28T17:33:50;24.40;;;7.40;;
76117;SDS011;64851;50.232;20.364;2023-02-28T17:36:38;25.00;;;9.30;;
76117;SDS011;64851;50.232;20.364;2023-02-28T17:39:14;27.70;;;9.70;;
76117;SDS011;64851;50.232;20.364;2023-02-28T17:42:12;20.90;;;8.30;;
76117;SDS011;64851;50.232;20.364;2023-02-28T17:44:48;27.70;;;10.00;;
76117;SDS011;64851;50.232;20.364;2023-02-28T17:47:37;21.70;;;8.60;;
76117;SDS011;64851;50.232;20.364;2023-02-28T17:50:14;21.50;;;7.90;;
76117;SDS011;64851;50.232;20.364;2023-02-28T17:53:06;21.90;;;8.20;;
76117;SDS011;64851;50.232;20.364;2023-02-28T17:55:42;25.20;;;8.60;;
76117;SDS011;64851;50.232;20.364;2023-02-28T17:58:29;29.80;;;11.40;;
76117;SDS011;64851;50.232;20.364;2023-02-28T18:01:08;39.10;;;13.10;;
76117;SDS011;64851;50.232;20.364;2023-02-28T18:04:04;23.50;;;6.10;;
76117;SDS011;64851;50.232;20.364;2023-02-28T18:06:41;36.10;;;13.80;;
76117;SDS011;64851;50.232;20.364;2023-02-28T18:09:32;34.80;;;12.70;;
76117;SDS011;64851;50.232;20.364;2023-02-28T18:12:09;30.20;;;12.60;;
76117;SDS011;64851;50.232;20.364;2023-02-28T18:14:56;31.70;;;12.70;;
76117;SDS011;64851;50.232;20.364;2023-02-28T18:17:31;27.00;;;11.20;;
76117;SDS011;64851;50.232;20.364;2023-02-28T18:20:26;17.00;;;7.10;;
76117;SDS011;64851;50.232;20.364;2023-02-28T18:23:23;20.50;;;7.10;;
76117;SDS011;64851;50.232;20.364;2023-02-28T18:26:05;15.60;;;6.00;;
76117;SDS011;64851;50.232;20.364;2023-02-28T18:28:55;17.20;;;5.60;;
76117;SDS011;64851;50.232;20.364;2023-02-28T18:31:32;15.40;;;6.00;;
76117;SDS011;64851;50.232;20.364;2023-02-28T18:34:27;15.10;;;5.50;;
76117;SDS011;64851;50.232;20.364;2023-02-28T18:37:03;29.80;;;9.20;;
76117;SDS011;64851;50.232;20.364;2023-02-28T18:39:51;33.70;;;10.90;;
76117;SDS011;64851;50.232;20.364;2023-02-28T18:42:46;18.80;;;6.70;;
76117;SDS011;64851;50.232;20.364;2023-02-28T18:45:41;12.40;;;5.00;;